Terminal Aerodrome Forecast
Issued by NWS Upton, NY

Home | Current Version | Previous Version | Text Only | Print | Product List | Glossary On
Versions: 1 2 3 4 5 6 7 8 9 10 11 12 13 14 15 16 17 18 19 20 21 22 23 24 25 26 27 28
455
FTUS41 KOKX 111503 AAA
TAFISP
TAF AMD
KISP 111503Z 1115/1212 23008KT P6SM OVC100
     FM112100 19006KT 6SM -SN SCT025 OVC040
     FM120200 19005KT P6SM VCSH SCT045 OVC080
     FM120500 18006KT 5SM -RA BKN020 OVC035
     FM120800 21012G20KT 2SM RA BR OVC008=

USA.gov is the U.S. government's official web portal to all federal, state and local government web resources and services.